Time;durP1;ratioP1;P1;durP2;ratioP2;P2;SDS_P1;SDS_P2;PMS_P1;PMS_P2;Temp;Humidity;BMP_temperature;BMP_pressure;BME280_temperature;BME280_humidity;BME280_pressure;Samples;Min_cycle;Max_cycle;Signal;HPM_P1;HPM_P2
2023/05/30 00:01:45;;;;;;;11.30;4.90;;;15.70;99.90;;;15.87;70.47;94838.19;5073434;28;20570;-54
2023/05/30 00:04:12;;;;;;;6.30;4.43;;;15.60;99.90;;;15.86;70.50;94841.84;5075722;28;20573;-64
2023/05/30 00:06:40;;;;;;;4.50;4.10;;;15.60;99.90;;;15.85;70.35;94848.13;5073723;28;20446;-56
2023/05/30 00:09:08;;;;;;;5.90;3.93;;;15.60;99.90;;;15.82;70.18;94838.72;5070169;28;21455;-55
2023/05/30 00:11:36;;;;;;;5.93;4.40;;;15.60;99.90;;;15.80;70.31;94842.53;5074673;28;20501;-54
2023/05/30 00:14:04;;;;;;;4.50;4.00;;;15.50;99.90;;;15.77;70.31;94847.19;5069194;28;20555;-64
2023/05/30 00:16:31;;;;;;;7.07;3.97;;;15.50;99.90;;;15.73;70.27;94845.00;5073562;28;20973;-64
2023/05/30 00:19:00;;;;;;;7.47;4.40;;;15.50;99.90;;;15.70;70.69;94846.19;5069478;28;20562;-55
2023/05/30 00:21:28;;;;;;;6.63;4.83;;;15.50;99.90;;;15.71;70.77;94850.50;5076423;28;20847;-53
2023/05/30 00:23:55;;;;;;;5.73;4.40;;;15.50;99.90;;;15.70;70.90;94848.81;5069067;28;20478;-59
2023/05/30 00:26:26;;;;;;;9.67;5.10;;;15.50;99.90;;;15.69;70.68;94851.66;5074124;28;20450;-54
2023/05/30 00:28:53;;;;;;;5.97;3.77;;;15.40;99.90;;;15.69;70.64;94851.66;5069596;28;20471;-63
2023/05/30 00:31:20;;;;;;;11.43;4.53;;;15.40;99.90;;;15.68;70.93;94853.50;5073529;28;20447;-61
2023/05/30 00:33:47;;;;;;;6.17;4.60;;;15.40;99.90;;;15.68;70.93;94857.97;5071113;28;20531;-55
2023/05/30 00:36:15;;;;;;;4.07;3.77;;;15.50;99.90;;;15.67;71.22;94854.47;5077483;28;20443;-63
2023/05/30 00:38:42;;;;;;;11.10;4.90;;;15.40;99.90;;;15.66;71.17;94855.50;5072918;28;20465;-53
2023/05/30 00:41:09;;;;;;;4.93;4.40;;;15.50;99.90;;;15.66;71.25;94863.44;5067797;28;20515;-53
2023/05/30 00:43:38;;;;;;;4.40;4.00;;;15.40;99.90;;;15.66;71.32;94858.16;5076796;28;21053;-55
2023/05/30 00:46:05;;;;;;;6.87;4.80;;;15.50;99.90;;;15.62;71.25;94854.16;5070029;28;20528;-64
2023/05/30 00:48:32;;;;;;;16.00;4.70;;;15.40;99.90;;;15.64;71.42;94854.81;5074183;28;20524;-64
2023/05/30 00:51:00;;;;;;;6.70;4.10;;;15.40;99.90;;;15.63;71.53;94861.13;5074191;28;20479;-64
2023/05/30 00:53:27;;;;;;;6.67;5.27;;;15.40;99.90;;;15.60;71.35;94854.34;5074573;28;20470;-64
2023/05/30 00:55:54;;;;;;;5.27;4.33;;;15.40;99.90;;;15.57;71.29;94857.34;5073939;28;20516;-65
2023/05/30 00:58:22;;;;;;;4.83;4.30;;;15.40;99.90;;;15.54;71.19;94849.72;5078158;28;20554;-53
2023/05/30 01:00:51;;;;;;;6.43;4.23;;;15.30;99.90;;;15.52;71.23;94850.88;5076294;28;20577;-65
2023/05/30 01:03:22;;;;;;;7.23;4.23;;;15.30;99.90;;;15.49;71.03;94856.53;5073753;28;20464;-57
2023/05/30 01:05:49;;;;;;;7.33;4.50;;;15.30;99.90;;;15.45;71.19;94856.03;5073330;28;20446;-65
2023/05/30 01:08:16;;;;;;;7.10;4.77;;;15.20;99.90;;;15.42;71.18;94859.03;5073689;28;20818;-56
2023/05/30 01:10:43;;;;;;;4.70;4.30;;;15.20;99.90;;;15.38;71.10;94861.22;5075355;28;20454;-65
2023/05/30 01:13:16;;;;;;;8.80;4.37;;;15.10;99.90;;;15.34;71.17;94859.06;5073880;28;20559;-65
2023/05/30 01:15:47;;;;;;;5.00;4.60;;;15.20;99.90;;;15.31;71.54;94854.09;5075455;28;21002;-63
2023/05/30 01:18:20;;;;;;;4.07;3.67;;;15.10;99.90;;;15.30;71.46;94860.41;5076646;28;20506;-54
2023/05/30 01:20:50;;;;;;;4.67;3.47;;;15.00;99.90;;;15.28;71.48;94854.44;5073635;28;20585;-64
2023/05/30 01:23:43;;;;;;;4.47;4.07;;;15.00;99.90;;;15.25;71.72;94850.31;5072149;28;20510;-56
2023/05/30 01:26:26;;;;;;;3.37;3.17;;;15.00;99.90;;;15.26;71.83;94857.25;5073723;28;20443;-67
2023/05/30 01:28:55;;;;;;;4.30;3.90;;;15.00;99.90;;;15.25;71.99;94858.25;5072848;28;21005;-54
2023/05/30 01:31:23;;;;;;;4.30;3.90;;;15.00;99.90;;;15.24;71.73;94851.28;5073334;28;20873;-55
2023/05/30 01:33:50;;;;;;;6.23;4.53;;;15.00;99.90;;;15.25;71.72;94845.00;5075269;28;20501;-55
2023/05/30 01:36:18;;;;;;;5.23;3.63;;;15.00;99.90;;;15.23;71.65;94842.53;5073235;28;20520;-65
2023/05/30 01:38:45;;;;;;;9.33;4.90;;;15.00;99.90;;;15.21;71.46;94841.03;5076716;28;20471;-63
2023/05/30 01:41:16;;;;;;;4.23;3.57;;;15.00;99.90;;;15.17;71.58;94834.44;5072191;28;21173;-64
2023/05/30 01:43:50;;;;;;;4.07;3.40;;;14.90;99.90;;;15.17;71.69;94850.31;5080619;28;20812;-53
2023/05/30 01:46:26;;;;;;;4.83;4.00;;;14.90;99.90;;;15.16;71.90;94843.38;5075868;28;21151;-52
2023/05/30 01:49:00;;;;;;;6.73;4.00;;;14.90;99.90;;;15.17;71.75;94845.03;5075525;28;20548;-64
2023/05/30 01:51:35;;;;;;;4.00;3.60;;;14.90;99.90;;;15.18;72.26;94849.31;5075342;28;20454;-65
2023/05/30 01:54:05;;;;;;;4.30;3.73;;;15.00;99.90;;;15.17;72.34;94845.84;5073762;28;20478;-58
2023/05/30 01:56:32;;;;;;;6.70;4.70;;;15.00;99.90;;;15.17;72.19;94852.97;5076567;28;20516;-53
2023/05/30 01:59:00;;;;;;;4.67;4.27;;;15.00;99.90;;;15.13;72.08;94852.47;5073054;28;20470;-64
2023/05/30 02:01:29;;;;;;;5.43;3.80;;;14.90;99.90;;;15.15;72.24;94854.94;5076848;28;20544;-64
2023/05/30 02:03:56;;;;;;;7.50;4.90;;;14.90;99.90;;;15.14;72.35;94848.00;5078053;28;20481;-64
2023/05/30 02:06:24;;;;;;;5.83;4.73;;;15.00;99.90;;;15.13;72.17;94851.66;5074093;28;20503;-63
2023/05/30 02:08:51;;;;;;;5.53;4.50;;;14.90;99.90;;;15.11;72.55;94853.66;5075714;28;20479;-65
2023/05/30 02:11:18;;;;;;;4.40;4.10;;;14.90;99.90;;;15.10;72.29;94847.50;5072026;28;20447;-65
2023/05/30 02:13:46;;;;;;;10.67;4.50;;;14.90;99.90;;;15.08;72.38;94860.09;5071423;28;20560;-64
2023/05/30 02:16:13;;;;;;;7.10;5.00;;;14.90;99.90;;;15.08;72.26;94859.28;5075046;28;20549;-65
2023/05/30 02:18:42;;;;;;;7.03;5.10;;;14.90;99.90;;;15.04;72.25;94859.63;5074314;28;20475;-56
2023/05/30 02:21:09;;;;;;;8.17;4.97;;;14.80;99.90;;;15.00;72.41;94860.94;5072573;28;20528;-65
2023/05/30 02:23:36;;;;;;;5.90;4.40;;;14.80;99.90;;;14.98;72.10;94856.78;5076831;28;20459;-55
2023/05/30 02:26:04;;;;;;;11.00;4.70;;;14.80;99.90;;;14.95;72.58;94865.06;5071313;28;20538;-65
2023/05/30 02:28:32;;;;;;;5.50;5.10;;;14.70;99.90;;;14.93;72.38;94865.25;5074972;28;20713;-56
2023/05/30 02:30:59;;;;;;;4.63;4.23;;;14.70;99.90;;;14.93;72.49;94859.13;5072376;28;20524;-53
2023/05/30 02:33:26;;;;;;;4.60;4.07;;;14.70;99.90;;;14.91;72.38;94858.47;5074080;28;20471;-54
2023/05/30 02:35:55;;;;;;;4.70;4.30;;;14.70;99.90;;;14.90;72.60;94870.88;5072719;28;20504;-65
2023/05/30 02:38:22;;;;;;;9.10;4.23;;;14.70;99.90;;;14.87;72.40;94863.25;5073550;28;20447;-54
2023/05/30 02:40:49;;;;;;;4.77;4.23;;;14.70;99.90;;;14.85;72.52;94858.13;5076672;28;20961;-65
2023/05/30 02:43:16;;;;;;;5.13;4.03;;;14.70;99.90;;;14.83;72.36;94861.94;5069077;28;20570;-54
2023/05/30 02:45:44;;;;;;;9.87;4.70;;;14.60;99.90;;;14.80;72.16;94865.75;5074016;28;20476;-63
2023/05/30 02:48:11;;;;;;;11.47;4.30;;;14.60;99.90;;;14.79;72.14;94860.63;5070617;28;20455;-65
2023/05/30 02:50:38;;;;;;;5.63;4.57;;;14.60;99.90;;;14.77;72.39;94862.63;5084820;28;20891;-65
2023/05/30 02:53:07;;;;;;;6.77;5.47;;;14.60;99.90;;;14.75;72.41;94860.13;5071140;28;20454;-66
2023/05/30 02:55:34;;;;;;;4.83;4.30;;;14.60;99.90;;;14.74;71.99;94862.94;5071698;28;21231;-56
2023/05/30 02:58:03;;;;;;;4.50;3.50;;;14.60;99.90;;;14.69;71.82;94864.25;5073645;28;20450;-63
2023/05/30 03:00:33;;;;;;;4.33;3.93;;;14.50;99.90;;;14.65;72.01;94854.97;5072857;28;20513;-54
2023/05/30 03:03:01;;;;;;;6.90;4.73;;;14.50;99.90;;;14.61;72.05;94858.97;5067338;28;21098;-65
2023/05/30 03:05:28;;;;;;;6.97;4.53;;;14.40;99.90;;;14.57;71.89;94860.25;5070711;28;20451;-56
2023/05/30 03:07:55;;;;;;;6.90;4.13;;;14.40;99.90;;;14.54;71.86;94860.56;5074658;28;20494;-65
2023/05/30 03:10:24;;;;;;;7.50;5.20;;;14.40;99.90;;;14.52;72.12;94862.56;5076825;28;20491;-66
2023/05/30 03:12:51;;;;;;;9.67;4.57;;;14.30;99.90;;;14.51;72.15;94859.06;5074066;28;20879;-65
2023/05/30 03:15:20;;;;;;;8.50;4.63;;;14.30;99.90;;;14.49;72.23;94861.06;5072408;28;20470;-54
2023/05/30 03:17:48;;;;;;;5.83;4.73;;;14.30;99.90;;;14.48;72.32;94862.09;5070815;28;20542;-66
2023/05/30 03:20:15;;;;;;;6.20;4.87;;;14.30;99.90;;;14.48;72.26;94863.88;5073839;28;20520;-65
2023/05/30 03:22:43;;;;;;;5.27;4.37;;;14.30;99.90;;;14.46;72.53;94865.88;5074523;28;20490;-66
2023/05/30 03:25:10;;;;;;;6.27;4.37;;;14.30;99.90;;;14.45;72.43;94856.28;5070140;28;20479;-65
2023/05/30 03:27:39;;;;;;;8.70;4.90;;;14.30;99.90;;;14.44;72.35;94849.34;5072345;28;20519;-67
2023/05/30 03:30:08;;;;;;;12.03;5.63;;;14.30;99.90;;;14.45;72.58;94862.41;5070498;28;20563;-55
2023/05/30 03:32:35;;;;;;;4.80;4.30;;;14.30;99.90;;;14.45;72.51;94859.75;5075183;28;20459;-55
2023/05/30 03:35:02;;;;;;;15.20;5.60;;;14.20;99.90;;;14.47;72.62;94862.25;5070685;28;20552;-55
2023/05/30 03:37:30;;;;;;;9.30;5.73;;;14.30;99.90;;;14.50;72.72;94869.81;5072386;28;20447;-53
2023/05/30 03:39:57;;;;;;;20.70;5.20;;;14.30;99.90;;;14.49;73.05;94861.06;5074180;28;20648;-65
2023/05/30 03:42:24;;;;;;;6.20;4.27;;;14.30;99.90;;;14.55;73.31;94867.53;5069755;28;20498;-55
2023/05/30 03:44:53;;;;;;;7.23;5.00;;;14.30;99.90;;;14.58;73.13;94867.22;5071816;28;20536;-65
2023/05/30 03:47:20;;;;;;;6.33;5.43;;;14.40;99.90;;;14.62;72.95;94878.31;5074814;28;20450;-56
2023/05/30 03:49:48;;;;;;;10.13;4.80;;;14.40;99.90;;;14.64;73.09;94876.31;5079853;28;20541;-53
2023/05/30 03:52:16;;;;;;;9.43;5.00;;;14.40;99.90;;;14.66;73.16;94885.75;5075108;28;20461;-62
2023/05/30 03:54:43;;;;;;;6.17;5.03;;;14.50;99.90;;;14.68;73.01;94881.13;5067336;28;20475;-57
2023/05/30 03:57:11;;;;;;;6.23;4.70;;;14.50;99.90;;;14.70;72.89;94883.59;5074343;28;20446;-62
2023/05/30 03:59:39;;;;;;;7.37;5.43;;;14.50;99.90;;;14.73;72.84;94885.09;5069146;28;20474;-55
2023/05/30 04:02:07;;;;;;;5.23;4.77;;;14.50;99.90;;;14.76;72.82;94898.00;5072351;28;20543;-62
2023/05/30 04:04:35;;;;;;;13.07;4.63;;;14.50;99.90;;;14.77;72.56;94886.44;5068211;28;20471;-54
2023/05/30 04:07:03;;;;;;;5.50;4.37;;;14.60;99.90;;;14.80;72.31;94886.13;5072035;28;20443;-56
2023/05/30 04:09:30;;;;;;;6.10;4.87;;;14.60;99.90;;;14.81;72.26;94891.25;5070838;28;20530;-63
2023/05/30 04:11:57;;;;;;;7.40;4.53;;;14.60;99.90;;;14.82;71.88;94895.53;5070161;28;20803;-55
2023/05/30 04:14:25;;;;;;;22.17;6.80;;;14.60;99.90;;;14.82;72.11;94902.66;5064512;28;20516;-53
2023/05/30 04:16:52;;;;;;;9.83;5.77;;;14.60;99.90;;;14.81;71.81;94896.53;5075355;28;20451;-64
2023/05/30 04:19:21;;;;;;;38.63;5.53;;;14.60;99.90;;;14.81;71.58;94906.28;5071058;28;20477;-65
2023/05/30 04:21:48;;;;;;;9.03;5.50;;;14.60;99.90;;;14.83;72.02;94914.91;5072680;28;21033;-56
2023/05/30 04:24:16;;;;;;;8.03;6.43;;;14.60;99.90;;;14.87;71.86;94913.56;5079093;28;20838;-58
2023/05/30 04:26:45;;;;;;;16.23;6.13;;;14.60;99.90;;;14.91;72.05;94908.78;5072037;28;20952;-56
2023/05/30 04:29:12;;;;;;;7.57;5.87;;;14.70;99.90;;;14.96;71.87;94906.47;5080280;28;20475;-64
2023/05/30 04:31:40;;;;;;;29.20;7.07;;;14.70;99.90;;;15.00;71.92;94916.56;5074260;28;20468;-54
2023/05/30 04:34:07;;;;;;;13.43;6.90;;;14.80;99.90;;;15.04;71.60;94911.75;5071315;28;20481;-64
2023/05/30 04:36:36;;;;;;;11.30;6.70;;;14.80;99.90;;;15.09;72.05;94914.75;5074087;28;20455;-57
2023/05/30 04:39:04;;;;;;;16.63;6.90;;;14.90;99.90;;;15.15;72.33;94915.88;5072042;28;20470;-61
2023/05/30 04:41:32;;;;;;;11.93;7.00;;;14.90;99.90;;;15.22;72.26;94920.34;5073492;28;20555;-54
2023/05/30 04:43:59;;;;;;;14.80;7.17;;;15.00;99.90;;;15.31;72.47;94909.75;5074359;28;20474;-62
2023/05/30 04:46:27;;;;;;;24.57;8.30;;;15.10;99.90;;;15.38;72.50;94916.88;5072750;28;20449;-63
2023/05/30 04:48:55;;;;;;;16.00;7.20;;;15.10;99.90;;;15.46;72.53;94918.69;5075610;28;20830;-55
2023/05/30 04:51:23;;;;;;;14.93;6.60;;;15.20;99.90;;;15.52;72.36;94925.09;5079412;28;20990;-60
2023/05/30 04:53:52;;;;;;;12.03;7.67;;;15.30;99.90;;;15.60;72.25;94927.75;5076850;28;20478;-65
2023/05/30 04:56:20;;;;;;;18.33;5.83;;;15.40;99.90;;;15.69;72.57;94932.03;5079527;28;20558;-55
2023/05/30 04:58:48;;;;;;;15.57;7.80;;;15.40;99.90;;;15.77;72.53;94934.69;5071808;28;20470;-67
2023/05/30 05:01:15;;;;;;;18.77;6.63;;;15.50;99.90;;;15.86;72.51;94937.31;5075849;28;20458;-67
2023/05/30 05:03:43;;;;;;;20.07;7.80;;;15.60;99.90;;;15.94;72.25;94938.13;5072169;28;20474;-66
2023/05/30 05:06:11;;;;;;;26.87;6.80;;;15.70;99.90;;;16.03;72.08;94930.94;5077358;28;20472;-55
2023/05/30 05:08:38;;;;;;;12.40;7.83;;;15.80;99.90;;;16.16;71.98;94937.53;5074560;28;20490;-65
2023/05/30 05:11:07;;;;;;;23.10;7.67;;;15.80;99.90;;;16.27;71.96;94945.13;5078198;28;20477;-56
2023/05/30 05:13:35;;;;;;;20.30;6.80;;;16.00;99.90;;;16.41;71.97;94946.22;5073165;28;20485;-67
2023/05/30 05:16:04;;;;;;;11.07;7.07;;;16.10;99.90;;;16.53;71.48;94939.53;5078407;28;20493;-67
2023/05/30 05:18:31;;;;;;;12.10;7.57;;;16.20;99.90;;;16.70;71.15;94950.03;5072676;28;20470;-55
2023/05/30 05:20:59;;;;;;;16.47;7.80;;;16.40;99.90;;;16.84;70.98;94952.75;5082027;28;20808;-55
2023/05/30 05:23:27;;;;;;;15.70;5.60;;;16.50;99.90;;;16.96;70.40;94945.25;5074385;28;20493;-67
2023/05/30 05:25:54;;;;;;;7.77;4.93;;;16.60;99.90;;;17.11;70.12;94947.13;5076740;28;20544;-55
2023/05/30 05:28:23;;;;;;;9.03;6.27;;;16.70;99.90;;;17.20;70.14;94946.88;5073288;28;20466;-55
2023/05/30 05:30:50;;;;;;;6.67;5.70;;;16.90;99.90;;;17.29;69.52;94952.09;5076547;28;20878;-65
2023/05/30 05:33:18;;;;;;;10.87;5.30;;;17.00;99.90;;;17.33;69.12;94956.88;5069673;28;21007;-55
2023/05/30 05:35:46;;;;;;;5.30;4.70;;;17.00;99.90;;;17.31;68.32;94953.59;5079092;28;20903;-66
2023/05/30 05:38:13;;;;;;;14.63;4.83;;;17.00;99.90;;;17.36;68.96;94956.53;5075968;28;20830;-55
2023/05/30 05:40:41;;;;;;;15.13;5.20;;;17.10;99.90;;;17.40;69.16;94967.66;5075345;28;20467;-67
2023/05/30 05:43:08;;;;;;;6.10;5.07;;;17.10;99.90;;;17.44;68.82;94968.94;5075195;28;20559;-67
2023/05/30 05:45:37;;;;;;;8.43;5.17;;;17.10;99.90;;;17.47;68.41;94959.78;5075027;28;21056;-66
2023/05/30 05:48:05;;;;;;;5.97;4.73;;;17.20;99.90;;;17.52;68.50;94965.38;5076064;28;20992;-67
2023/05/30 05:50:32;;;;;;;11.83;5.10;;;17.20;99.90;;;17.60;68.22;94972.44;5076503;28;20443;-54
2023/05/30 05:53:00;;;;;;;14.03;5.70;;;17.30;99.90;;;17.67;68.25;94973.38;5077219;28;20454;-60
2023/05/30 05:55:27;;;;;;;5.03;4.50;;;17.40;99.90;;;17.72;68.31;94974.50;5071357;28;20482;-67
2023/05/30 05:57:54;;;;;;;7.03;4.57;;;17.40;99.90;;;17.79;67.15;94977.25;5076322;28;20454;-54
2023/05/30 06:00:22;;;;;;;7.60;5.03;;;17.50;99.90;;;17.81;66.93;94969.91;5071931;28;20990;-57
2023/05/30 06:02:51;;;;;;;10.50;5.27;;;17.50;99.90;;;17.84;67.27;94969.53;5070346;28;20491;-66
2023/05/30 06:05:18;;;;;;;9.03;4.93;;;17.50;99.90;;;17.89;67.58;94967.22;5072738;28;20493;-67
2023/05/30 06:07:45;;;;;;;8.53;5.10;;;17.60;99.90;;;17.96;67.17;94969.16;5076030;28;20834;-67
2023/05/30 06:10:13;;;;;;;8.50;5.40;;;17.60;99.90;;;18.01;67.17;94970.22;5076375;28;20492;-67
2023/05/30 06:12:40;;;;;;;8.70;5.40;;;17.70;99.90;;;18.06;66.73;94970.53;5076594;28;20447;-66
2023/05/30 06:15:09;;;;;;;6.57;5.90;;;17.80;99.90;;;18.12;67.24;94971.59;5075940;28;20547;-67
2023/05/30 06:17:36;;;;;;;8.80;5.00;;;17.80;99.90;;;18.18;nan;94976.19;5074271;28;20485;-67
2023/05/30 06:20:06;;;;;;;17.00;5.67;;;17.90;99.90;;;18.26;67.00;94985.91;5076869;28;20466;-56
2023/05/30 06:22:34;;;;;;;19.47;5.50;;;17.90;99.90;;;18.35;66.96;94984.00;5073110;28;20580;-66
2023/05/30 06:25:01;;;;;;;13.20;6.43;;;18.00;99.90;;;18.44;66.88;94985.56;5077704;28;20989;-67
2023/05/30 06:27:28;;;;;;;11.73;5.70;;;18.10;99.90;;;18.57;66.67;94982.22;5072096;28;20687;-56
2023/05/30 06:29:55;;;;;;;8.63;5.03;;;18.20;99.90;;;18.78;66.15;94984.13;5077991;28;20566;-55
2023/05/30 06:32:23;;;;;;;8.30;5.43;;;18.40;99.90;;;18.97;65.33;94985.38;5068121;28;20458;-66
2023/05/30 06:34:50;;;;;;;8.17;5.07;;;18.60;99.90;;;19.18;65.07;94984.56;5074518;28;20474;-55
2023/05/30 06:37:19;;;;;;;13.83;5.40;;;18.80;99.90;;;19.38;64.19;94989.22;5071973;28;20474;-57
2023/05/30 06:39:46;;;;;;;11.20;5.43;;;19.00;99.90;;;19.51;63.27;94992.84;5077216;28;20486;-65
2023/05/30 06:42:13;;;;;;;11.13;4.10;;;19.10;99.90;;;19.62;63.68;94986.16;5072415;28;20929;-68
2023/05/30 06:44:41;;;;;;;19.73;4.80;;;19.20;99.90;;;19.71;63.16;94990.34;5076151;28;21006;-67
2023/05/30 06:47:08;;;;;;;7.07;4.77;;;19.30;99.90;;;19.73;61.82;94989.34;5073010;28;20458;-57
2023/05/30 06:49:35;;;;;;;5.33;3.37;;;19.40;99.90;;;19.68;62.46;94992.59;5076222;28;20466;-68
2023/05/30 06:52:03;;;;;;;7.13;4.50;;;19.40;99.90;;;19.66;63.29;94994.63;5074272;28;20875;-66
2023/05/30 06:54:32;;;;;;;4.70;3.67;;;19.40;99.90;;;19.71;63.27;94990.34;5071668;28;20742;-56
2023/05/30 06:57:02;;;;;;;6.60;4.30;;;19.40;99.90;;;19.77;62.80;94991.44;5074154;28;20459;-55
2023/05/30 06:59:30;;;;;;;7.93;3.60;;;19.40;99.90;;;19.79;63.00;94991.25;5070493;28;21464;-55
2023/05/30 07:01:57;;;;;;;7.17;4.67;;;19.40;99.90;;;19.81;62.50;94990.03;5073663;28;20447;-67
2023/05/30 07:04:24;;;;;;;8.67;4.23;;;19.50;99.90;;;19.85;62.63;94988.63;5076047;28;20557;-67
2023/05/30 07:06:52;;;;;;;10.23;4.50;;;19.50;99.90;;;19.87;62.01;94988.44;5072883;28;20469;-67
2023/05/30 07:09:19;;;;;;;5.13;4.60;;;19.50;99.90;;;19.86;62.10;95000.13;5075355;28;20539;-67
2023/05/30 07:11:49;;;;;;;4.33;3.93;;;19.50;99.90;;;19.83;62.10;94995.16;5068830;28;20447;-55
2023/05/30 07:14:16;;;;;;;4.70;4.30;;;19.50;99.90;;;19.78;61.47;94998.41;5076239;28;20471;-68
2023/05/30 07:16:43;;;;;;;6.27;4.97;;;19.50;99.90;;;19.76;62.04;94999.63;5073888;28;20941;-54
2023/05/30 07:19:11;;;;;;;5.10;4.50;;;19.40;99.90;;;19.75;61.30;94995.28;5073754;28;20500;-68
2023/05/30 07:21:38;;;;;;;20.03;4.50;;;19.40;99.90;;;19.70;61.80;94991.38;5072342;28;21018;-57
2023/05/30 07:24:05;;;;;;;19.50;6.33;;;19.40;99.90;;;19.74;62.24;95001.66;5073370;28;21023;-67
2023/05/30 07:26:33;;;;;;;11.60;6.40;;;19.40;99.90;;;19.75;62.36;95001.47;5074302;28;20450;-66
2023/05/30 07:29:02;;;;;;;11.13;6.13;;;19.40;99.90;;;19.80;62.19;95014.25;5071838;28;20474;-55
2023/05/30 07:31:29;;;;;;;8.20;5.90;;;19.40;99.90;;;19.84;61.83;95007.50;5075284;28;20458;-55
2023/05/30 07:33:56;;;;;;;21.03;6.93;;;19.50;99.90;;;19.85;61.85;95012.66;5070272;28;20474;-66
2023/05/30 07:36:24;;;;;;;11.50;5.30;;;19.50;99.90;;;19.91;62.24;95010.22;5073295;28;20458;-66
2023/05/30 07:38:51;;;;;;;10.30;5.07;;;19.50;99.90;;;19.99;62.24;95004.75;5069489;28;20475;-67
2023/05/30 07:41:18;;;;;;;8.63;5.07;;;19.60;99.90;;;20.08;62.11;94997.41;5075500;28;21018;-56
2023/05/30 07:43:45;;;;;;;22.03;4.77;;;19.70;99.90;;;20.15;62.51;95003.63;5069228;28;20494;-56
2023/05/30 07:46:14;;;;;;;9.00;4.93;;;19.80;99.90;;;20.27;61.85;95004.72;5075381;28;20450;-54
2023/05/30 07:48:41;;;;;;;6.67;4.53;;;19.90;99.90;;;20.35;61.90;95004.53;5074484;28;20462;-56
2023/05/30 07:51:10;;;;;;;6.47;4.80;;;20.00;99.90;;;20.44;61.80;95005.22;5072886;28;20871;-66
2023/05/30 07:53:37;;;;;;;14.20;5.37;;;20.10;99.90;;;20.51;61.74;95005.25;5070505;28;20549;-67
2023/05/30 07:56:05;;;;;;;5.43;5.03;;;20.10;99.90;;;20.57;61.32;95007.97;5073341;28;20457;-68
2023/05/30 07:58:32;;;;;;;7.97;5.57;;;20.20;99.90;;;20.63;61.40;95011.66;5071065;28;20481;-59
2023/05/30 08:01:00;;;;;;;11.40;5.00;;;20.30;99.90;;;20.74;61.32;95008.47;5071843;28;21355;-54
2023/05/30 08:03:28;;;;;;;7.27;5.37;;;20.30;99.90;;;20.81;60.92;95008.50;5070535;28;20574;-67
2023/05/30 08:05:56;;;;;;;4.30;4.00;;;20.40;99.90;;;20.87;60.81;95006.88;5071067;28;20997;-54
2023/05/30 08:08:24;;;;;;;7.40;4.80;;;20.50;99.90;;;20.98;60.88;95005.47;5073513;28;20486;-57
2023/05/30 08:10:51;;;;;;;8.00;4.90;;;20.60;99.90;;;21.10;60.93;95001.16;5070661;28;20534;-67
2023/05/30 08:13:19;;;;;;;6.13;4.50;;;20.70;99.90;;;21.20;59.94;95003.47;5066737;28;20459;-67
2023/05/30 08:15:47;;;;;;;8.30;4.90;;;20.80;99.90;;;21.28;60.21;95019.31;5075520;28;20834;-53
2023/05/30 08:18:14;;;;;;;6.30;4.37;;;20.90;99.90;;;21.30;59.89;95018.09;5067055;28;20939;-67
2023/05/30 08:20:43;;;;;;;6.70;4.27;;;20.90;99.90;;;21.34;59.92;95023.06;5074609;28;21014;-56
2023/05/30 08:23:10;;;;;;;3.93;3.53;;;20.90;99.90;;;21.31;60.00;95018.91;5070498;28;20552;-53
2023/05/30 08:25:42;;;;;;;5.57;2.97;;;20.90;99.90;;;21.28;59.87;95016.66;5073468;28;20446;-56
2023/05/30 08:28:11;;;;;;;3.67;1.50;;;20.90;99.90;;;21.28;59.43;95024.69;5067972;28;20450;-68
2023/05/30 08:30:40;;;;;;;3.37;2.40;;;21.00;99.90;;;21.23;59.34;95021.78;5065652;28;20568;-66
2023/05/30 08:33:09;;;;;;;2.97;2.33;;;20.90;99.70;;;21.20;58.52;95023.00;5070177;28;20477;-67
2023/05/30 08:35:36;;;;;;;3.87;3.17;;;20.80;99.60;;;21.16;58.71;95018.25;5072419;28;20535;-67
2023/05/30 08:38:05;;;;;;;2.03;1.70;;;20.80;99.30;;;21.17;59.08;95017.25;5073582;28;20446;-67
2023/05/30 08:40:32;;;;;;;5.63;2.10;;;20.80;99.60;;;21.20;57.63;95019.53;5068451;28;20470;-68
2023/05/30 08:43:00;;;;;;;3.10;1.83;;;20.80;98.90;;;21.19;58.36;95007.97;5074760;28;20501;-67
2023/05/30 08:45:27;;;;;;;2.80;1.93;;;20.80;99.00;;;21.23;58.36;95011.09;5067833;28;21032;-55
2023/05/30 08:47:55;;;;;;;1.97;1.70;;;20.90;99.20;;;21.29;58.16;95013.78;5072768;28;20564;-67
2023/05/30 08:50:23;;;;;;;2.43;2.10;;;20.90;99.10;;;21.35;58.10;95012.16;5073415;28;20502;-56
2023/05/30 08:52:52;;;;;;;1.67;1.57;;;20.90;98.90;;;21.39;57.92;95013.38;5072136;28;20461;-56
2023/05/30 08:55:26;;;;;;;2.70;2.50;;;21.00;98.90;;;21.42;57.29;95026.34;5068632;28;20485;-66
2023/05/30 08:57:58;;;;;;;3.30;2.07;;;21.00;98.40;;;21.46;57.90;95024.09;5073501;28;20826;-68
2023/05/30 09:00:25;;;;;;;2.83;2.63;;;21.10;98.70;;;21.52;57.24;95027.81;5074170;28;20470;-68
2023/05/30 09:02:55;;;;;;;1.93;1.83;;;21.10;98.50;;;21.56;56.77;95021.03;5071304;28;20612;-68
2023/05/30 09:05:22;;;;;;;1.87;1.77;;;21.20;97.90;;;21.56;56.87;95026.41;5073134;28;20545;-66
2023/05/30 09:07:50;;;;;;;2.07;1.90;;;21.20;97.80;;;21.54;57.44;95031.13;5070726;28;21068;-67
2023/05/30 09:10:17;;;;;;;4.20;1.63;;;21.20;98.40;;;21.56;57.52;95015.69;5072640;28;20478;-66
2023/05/30 09:12:46;;;;;;;5.00;1.70;;;21.20;98.50;;;21.65;56.93;95019.81;5069747;28;20508;-66
2023/05/30 09:15:13;;;;;;;3.90;2.60;;;21.30;98.20;;;21.68;57.30;95024.75;5076526;28;20461;-54
2023/05/30 09:17:41;;;;;;;5.30;2.07;;;21.30;98.20;;;21.70;56.69;95019.19;5072846;28;20975;-66
2023/05/30 09:20:09;;;;;;;2.33;2.13;;;21.30;97.70;;;21.64;56.83;95023.50;5077934;28;20474;-54
2023/05/30 09:22:36;;;;;;;2.57;2.37;;;21.30;97.90;;;21.59;57.30;95023.31;5073025;28;20504;-55
2023/05/30 09:25:06;;;;;;;3.37;2.43;;;21.20;98.30;;;21.54;58.05;95028.47;5078050;28;20516;-56
2023/05/30 09:27:35;;;;;;;9.33;2.70;;;21.20;98.60;;;21.48;58.28;95030.88;5072331;28;20458;-67
2023/05/30 09:30:09;;;;;;;2.40;2.20;;;21.10;98.70;;;21.48;59.12;95024.72;5069697;28;21008;-68
2023/05/30 09:32:36;;;;;;;2.63;2.43;;;21.10;99.10;;;21.54;59.07;95028.47;5073290;28;20451;-66
2023/05/30 09:35:06;;;;;;;4.50;3.03;;;21.10;99.40;;;21.54;59.39;95023.13;5073816;28;20502;-60
2023/05/30 09:37:37;;;;;;;2.60;1.93;;;21.20;99.50;;;21.53;59.36;95019.59;5074748;28;20465;-66
2023/05/30 09:40:07;;;;;;;2.13;2.03;;;21.20;99.60;;;21.53;59.14;95018.78;5073361;28;20507;-67
2023/05/30 09:42:42;;;;;;;2.60;2.40;;;21.20;99.60;;;21.46;59.14;95016.88;5076046;28;20454;-54
2023/05/30 09:45:13;;;;;;;3.70;1.77;;;21.10;99.40;;;21.42;59.14;95020.97;5069222;28;20599;-67
2023/05/30 09:47:44;;;;;;;2.73;2.53;;;21.10;99.40;;;21.40;59.58;95015.03;5077203;28;20454;-55
2023/05/30 09:50:13;;;;;;;2.90;2.70;;;21.10;99.70;;;21.37;59.12;95010.06;5075999;28;20463;-68
2023/05/30 09:52:41;;;;;;;2.10;2.00;;;21.00;99.50;;;21.33;59.50;95011.50;5069004;28;20514;-54
2023/05/30 09:55:10;;;;;;;7.33;3.30;;;21.00;99.80;;;21.35;59.92;95009.47;5071189;28;20467;-67
2023/05/30 09:57:38;;;;;;;3.00;2.73;;;20.90;99.70;;;21.37;59.39;95015.44;5075765;28;21044;-67
2023/05/30 10:00:13;;;;;;;6.00;3.40;;;21.00;99.80;;;21.44;59.97;95018.09;5072945;28;20502;-68
2023/05/30 10:02:43;;;;;;;3.90;1.90;;;21.00;99.80;;;21.56;59.48;95010.34;5072605;28;20844;-67
2023/05/30 10:05:19;;;;;;;3.70;2.37;;;21.10;99.70;;;21.65;58.58;95003.75;5074846;28;20563;-56
2023/05/30 10:07:48;;;;;;;2.60;2.40;;;21.20;99.10;;;21.67;58.47;95001.69;5072295;28;20550;-57
2023/05/30 10:10:16;;;;;;;5.83;2.40;;;21.30;99.20;;;21.69;58.85;95004.16;5076421;28;20514;-55
2023/05/30 10:12:43;;;;;;;2.60;2.10;;;21.30;99.20;;;21.74;58.70;94994.50;5068207;28;20443;-55
2023/05/30 10:15:11;;;;;;;3.87;2.10;;;21.40;99.30;;;21.82;58.38;94999.63;5076506;28;20474;-69
2023/05/30 10:17:45;;;;;;;3.10;1.77;;;21.40;99.20;;;21.88;58.00;95002.53;5070945;28;20827;-54
2023/05/30 10:20:13;;;;;;;2.43;2.23;;;21.50;98.90;;;21.87;57.85;94999.00;5070763;28;20845;-67
2023/05/30 10:22:44;;;;;;;3.20;2.57;;;21.50;98.70;;;21.91;58.56;95004.78;5074668;28;20530;-57